createdAt,value
2019-05-20T00:01:10.842Z,2.60
2019-05-20T00:03:40.676Z,2.53
2019-05-20T00:06:10.603Z,2.63
2019-05-20T00:08:40.627Z,2.67
2019-05-20T00:11:10.376Z,2.43
2019-05-20T00:13:40.147Z,2.50
2019-05-20T00:16:09.936Z,3.10
2019-05-20T00:18:39.732Z,2.77
2019-05-20T00:21:09.882Z,2.60
2019-05-20T00:23:40.084Z,2.60
2019-05-20T00:26:09.826Z,2.43
2019-05-20T00:28:39.582Z,2.27
2019-05-20T00:31:09.435Z,2.30
2019-05-20T00:33:39.440Z,2.87
2019-05-20T00:36:10.057Z,2.53
2019-05-20T00:38:39.834Z,2.53
2019-05-20T00:41:09.626Z,2.90
2019-05-20T00:43:39.378Z,2.40
2019-05-20T00:46:09.163Z,2.50
2019-05-20T00:48:40.126Z,3.03
2019-05-20T00:51:09.878Z,2.70
2019-05-20T00:53:41.509Z,2.63
2019-05-20T00:56:11.261Z,2.70
2019-05-20T00:58:41.015Z,2.60
2019-05-20T01:01:11.325Z,2.90
2019-05-20T01:03:41.190Z,2.93
2019-05-20T01:06:10.947Z,2.80
2019-05-20T01:08:40.718Z,2.87
2019-05-20T01:11:10.538Z,2.60
2019-05-20T01:13:40.301Z,2.43
2019-05-20T01:16:10.078Z,2.47
2019-05-20T01:18:39.841Z,2.70
2019-05-20T01:21:09.590Z,2.80
2019-05-20T01:23:39.443Z,2.37
2019-05-20T01:26:09.253Z,2.63
2019-05-20T01:28:39.035Z,2.80
2019-05-20T01:31:09.619Z,2.63
2019-05-20T01:33:39.650Z,2.50
2019-05-20T01:36:10.881Z,2.70
2019-05-20T01:38:40.649Z,2.40
2019-05-20T01:41:11.940Z,2.67
2019-05-20T01:43:41.987Z,2.63
2019-05-20T01:46:11.757Z,2.70
2019-05-20T01:48:41.570Z,1.90
2019-05-20T01:51:11.971Z,2.60
2019-05-20T01:53:41.834Z,2.80
2019-05-20T01:56:11.683Z,2.73
2019-05-20T01:58:41.488Z,2.70
2019-05-20T02:01:11.403Z,2.73
2019-05-20T02:03:41.180Z,2.33
2019-05-20T02:06:11.498Z,2.50
2019-05-20T02:08:41.352Z,3.07
2019-05-20T02:11:11.199Z,2.80
2019-05-20T02:13:53.223Z,2.83
2019-05-20T02:16:23.565Z,2.53
2019-05-20T02:18:53.371Z,2.33
2019-05-20T02:21:23.684Z,3.07
2019-05-20T02:23:53.466Z,2.77
2019-05-20T02:26:23.828Z,3.33
2019-05-20T02:28:53.686Z,2.87
2019-05-20T02:34:23.444Z,2.60
2019-05-20T02:36:54.254Z,2.60
2019-05-20T02:39:26.727Z,2.90
2019-05-20T02:41:55.646Z,2.63
2019-05-20T02:44:25.472Z,2.97
2019-05-20T02:46:55.693Z,2.73
2019-05-20T02:49:25.480Z,2.70
2019-05-20T02:51:55.330Z,2.80
2019-05-20T02:54:25.304Z,3.10
2019-05-20T02:56:55.075Z,2.53
2019-05-20T02:59:24.850Z,2.30
2019-05-20T03:01:54.879Z,2.90
2019-05-20T03:04:24.692Z,2.80
2019-05-20T03:06:54.461Z,2.67
2019-05-20T03:09:24.279Z,3.03
2019-05-20T03:11:54.038Z,2.80
2019-05-20T03:14:23.820Z,2.90
2019-05-20T03:16:53.633Z,2.87
2019-05-20T03:19:23.448Z,2.67
2019-05-20T03:21:53.407Z,2.57
2019-05-20T03:24:23.203Z,3.00
2019-05-20T03:26:53.047Z,2.73
2019-05-20T03:29:22.823Z,2.97
2019-05-20T03:31:54.023Z,2.70
2019-05-20T03:34:45.522Z,2.70
2019-05-20T03:36:57.535Z,2.63
2019-05-20T03:39:27.391Z,2.60
2019-05-20T03:41:57.251Z,2.60
2019-05-20T03:44:27.070Z,2.83
2019-05-20T03:46:56.851Z,2.80
2019-05-20T03:49:26.626Z,2.63
2019-05-20T03:51:56.466Z,2.87
2019-05-20T03:54:26.290Z,2.63
2019-05-20T03:56:56.070Z,2.43
2019-05-20T03:59:26.564Z,2.60
2019-05-20T04:01:56.349Z,2.90
2019-05-20T04:04:26.143Z,2.70
2019-05-20T04:06:56.004Z,2.70
2019-05-20T04:09:25.908Z,3.03
2019-05-20T04:11:55.847Z,2.47
2019-05-20T04:14:25.647Z,3.10
2019-05-20T04:16:55.427Z,2.50
2019-05-20T04:19:25.362Z,3.03
2019-05-20T04:21:56.239Z,2.70
2019-05-20T04:24:27.597Z,2.53
2019-05-20T04:27:00.557Z,2.70
2019-05-20T04:29:30.433Z,2.73
2019-05-20T04:32:02.460Z,2.73
2019-05-20T04:34:33.334Z,2.90
2019-05-20T04:37:03.140Z,2.77
2019-05-20T04:39:33.029Z,2.90
2019-05-20T04:42:06.548Z,2.73
2019-05-20T04:44:34.413Z,2.53
2019-05-20T04:47:04.363Z,2.63
2019-05-20T04:49:34.151Z,2.83
2019-05-20T04:52:03.926Z,3.10
2019-05-20T04:54:33.937Z,2.80
2019-05-20T04:57:03.787Z,2.80
2019-05-20T04:59:33.744Z,2.83
2019-05-20T05:02:03.555Z,2.50
2019-05-20T05:04:33.352Z,2.80
2019-05-20T05:07:03.291Z,2.90
2019-05-20T05:09:33.149Z,2.83
2019-05-20T05:12:03.275Z,2.90
2019-05-20T05:14:33.390Z,2.57
2019-05-20T05:17:03.338Z,2.80
2019-05-20T05:19:33.203Z,2.50
2019-05-20T05:22:03.070Z,2.93
2019-05-20T05:24:33.536Z,2.70
2019-05-20T05:27:03.855Z,2.90
2019-05-20T05:29:33.804Z,2.70
2019-05-20T05:32:06.374Z,2.63
2019-05-20T05:34:37.313Z,2.67
2019-05-20T05:37:07.083Z,2.60
2019-05-20T05:39:36.873Z,2.33
2019-05-20T05:42:06.741Z,2.63
2019-05-20T05:44:36.537Z,3.10
2019-05-20T05:47:06.315Z,2.63
2019-05-20T05:49:36.487Z,2.83
2019-05-20T05:52:06.327Z,2.60
2019-05-20T05:54:36.098Z,2.67
2019-05-20T05:57:05.915Z,2.70
2019-05-20T05:59:35.692Z,2.70
2019-05-20T06:02:05.473Z,2.80
2019-05-20T06:04:35.271Z,2.47
2019-05-20T06:07:05.106Z,3.07
2019-05-20T06:09:34.904Z,6.87
2019-05-20T06:12:04.974Z,9.87
2019-05-20T06:14:35.933Z,8.03
2019-05-20T06:17:05.714Z,5.87
2019-05-20T06:19:35.512Z,4.87
2019-05-20T06:22:05.395Z,4.87
2019-05-20T06:24:35.170Z,4.70
2019-05-20T06:27:05.050Z,4.03
2019-05-20T06:29:34.938Z,5.00
2019-05-20T06:32:06.055Z,3.90
2019-05-20T06:34:41.989Z,3.80
2019-05-20T06:37:12.682Z,5.07
2019-05-20T06:39:43.044Z,4.07
2019-05-20T06:42:12.971Z,3.93
2019-05-20T06:44:52.328Z,3.77
2019-05-20T06:47:14.346Z,3.60
2019-05-20T06:49:44.136Z,3.60
2019-05-20T06:52:13.995Z,5.07
2019-05-20T06:54:44.800Z,4.10
2019-05-20T06:57:14.927Z,3.90
2019-05-20T06:59:45.007Z,4.00
2019-05-20T07:02:15.684Z,7.60
2019-05-20T07:04:45.526Z,4.03
2019-05-20T07:07:20.920Z,3.30
2019-05-20T07:09:46.985Z,4.50
2019-05-20T07:12:16.791Z,3.87
2019-05-20T07:14:46.572Z,7.57
2019-05-20T07:17:17.104Z,7.37
2019-05-20T07:19:46.919Z,7.17
2019-05-20T07:22:16.843Z,6.73
2019-05-20T07:24:46.789Z,6.10
2019-05-20T07:27:16.646Z,7.20
2019-05-20T07:29:46.434Z,7.00
2019-05-20T07:32:17.091Z,7.10
2019-05-20T07:34:47.664Z,4.90
2019-05-20T07:37:18.426Z,4.03
2019-05-20T07:39:48.229Z,5.33
2019-05-20T07:42:18.159Z,5.47
2019-05-20T07:44:48.043Z,8.43
2019-05-20T07:47:18.023Z,4.57
2019-05-20T07:49:50.446Z,4.50
2019-05-20T07:52:22.982Z,3.83
2019-05-20T07:54:54.541Z,5.80
2019-05-20T07:57:28.354Z,9.23
2019-05-20T07:59:58.974Z,6.23
2019-05-20T08:02:30.082Z,4.50
2019-05-20T08:05:00.141Z,6.20
2019-05-20T08:07:50.349Z,8.03
2019-05-20T08:10:02.189Z,8.73
2019-05-20T08:12:32.375Z,7.80
2019-05-20T08:15:02.331Z,5.03
2019-05-20T08:17:32.675Z,9.30
2019-05-20T08:20:03.684Z,6.80
2019-05-20T08:22:33.748Z,8.00
2019-05-20T08:25:05.217Z,7.33
2019-05-20T08:27:35.122Z,5.57
2019-05-20T08:30:06.017Z,8.97
2019-05-20T08:32:37.334Z,9.27
2019-05-20T08:35:08.676Z,8.07
2019-05-20T08:37:45.496Z,8.53
2019-05-20T08:40:11.841Z,7.73
2019-05-20T08:42:41.663Z,12.97
2019-05-20T08:45:11.926Z,11.03
2019-05-20T08:47:43.535Z,11.23
2019-05-20T08:50:16.376Z,18.00
2019-05-20T08:52:46.000Z,18.40
2019-05-20T08:55:16.076Z,9.93
2019-05-20T08:57:48.106Z,11.37
2019-05-20T09:00:23.300Z,9.83
2019-05-20T09:02:53.588Z,9.33
2019-05-20T09:05:23.539Z,12.33
2019-05-20T09:08:03.717Z,11.37
2019-05-20T09:10:33.595Z,11.03
2019-05-20T09:13:38.447Z,11.13
2019-05-20T09:16:08.826Z,11.30
2019-05-20T09:18:39.408Z,16.80
2019-05-20T09:21:10.343Z,12.50
2019-05-20T09:23:40.598Z,12.10
2019-05-20T09:26:11.042Z,14.07
2019-05-20T09:28:41.446Z,15.17
2019-05-20T09:31:11.442Z,9.00
2019-05-20T09:33:42.339Z,9.87
2019-05-20T09:36:13.072Z,7.93
2019-05-20T09:38:44.596Z,9.30
2019-05-20T09:41:14.502Z,9.47
2019-05-20T09:43:44.491Z,9.60
2019-05-20T09:46:14.387Z,9.67
2019-05-20T09:48:44.170Z,9.07
2019-05-20T09:51:14.474Z,12.37
2019-05-20T09:53:45.196Z,8.43
2019-05-20T09:56:15.757Z,11.93
2019-05-20T09:58:46.621Z,11.90
2019-05-20T10:01:16.612Z,9.93
2019-05-20T10:03:46.474Z,8.00
2019-05-20T10:06:16.281Z,8.67
2019-05-20T10:08:46.198Z,10.77
2019-05-20T10:11:16.199Z,10.20
2019-05-20T10:13:46.050Z,7.50
2019-05-20T10:16:15.912Z,9.13
2019-05-20T10:18:45.696Z,6.20
2019-05-20T10:21:17.145Z,6.20
2019-05-20T10:23:47.014Z,7.83
2019-05-20T10:26:16.860Z,8.73
2019-05-20T10:28:47.672Z,9.10
2019-05-20T10:31:17.871Z,6.27
2019-05-20T10:33:47.702Z,5.90
2019-05-20T10:36:18.383Z,8.90
2019-05-20T10:38:58.435Z,7.83
2019-05-20T10:41:21.264Z,12.83
2019-05-20T10:43:51.067Z,11.23
2019-05-20T10:46:20.864Z,15.13
2019-05-20T10:48:50.739Z,12.83
2019-05-20T10:51:21.770Z,12.80
2019-05-20T10:53:52.586Z,12.57
2019-05-20T10:56:22.462Z,12.57
2019-05-20T10:58:52.339Z,13.70
2019-05-20T11:01:22.170Z,12.50
2019-05-20T11:03:52.244Z,10.30
2019-05-20T11:06:22.036Z,12.77
2019-05-20T11:08:51.838Z,10.50
2019-05-20T11:11:21.626Z,9.90
2019-05-20T11:13:51.410Z,9.73
2019-05-20T11:16:21.329Z,8.43
2019-05-20T11:18:52.672Z,7.63
2019-05-20T11:21:22.874Z,7.77
2019-05-20T11:23:52.662Z,8.27
2019-05-20T11:26:22.455Z,10.83
2019-05-20T11:28:52.410Z,7.90
2019-05-20T11:31:22.227Z,9.27
2019-05-20T11:33:53.499Z,7.30
2019-05-20T11:36:23.518Z,7.97
2019-05-20T11:38:54.568Z,7.67
2019-05-20T11:41:52.142Z,8.87
2019-05-20T11:43:57.579Z,7.43
2019-05-20T11:46:27.462Z,8.63
2019-05-20T11:48:57.254Z,7.33
2019-05-20T11:51:27.569Z,9.00
2019-05-20T11:53:57.372Z,7.13
2019-05-20T11:56:27.250Z,9.70
2019-05-20T11:58:58.182Z,11.70
2019-05-20T12:01:28.044Z,8.90
2019-05-20T12:03:58.023Z,8.90
2019-05-20T12:06:28.136Z,16.67
2019-05-20T12:08:57.915Z,20.13
2019-05-20T12:11:30.601Z,22.03
2019-05-20T12:14:00.471Z,20.77
2019-05-20T12:16:30.285Z,28.87
2019-05-20T12:19:00.110Z,25.30
2019-05-20T12:21:30.134Z,28.60
2019-05-20T12:24:00.105Z,25.13
2019-05-20T12:26:30.102Z,27.57
2019-05-20T12:29:01.506Z,29.20
2019-05-20T12:31:31.555Z,36.33
2019-05-20T12:34:02.419Z,27.03
2019-05-20T12:36:32.817Z,23.37
2019-05-20T12:39:04.439Z,23.93
2019-05-20T12:41:35.164Z,21.73
2019-05-20T12:44:11.502Z,19.73
2019-05-20T12:46:36.975Z,18.97
2019-05-20T12:49:08.630Z,18.80
2019-05-20T12:51:38.523Z,16.40
2019-05-20T12:54:08.328Z,18.83
2019-05-20T12:56:38.299Z,16.97
2019-05-20T12:59:08.108Z,18.37
2019-05-20T13:01:37.915Z,15.70
2019-05-20T13:04:08.589Z,19.00
2019-05-20T13:06:38.909Z,16.00
2019-05-20T13:09:09.272Z,20.10
2019-05-20T13:11:39.146Z,16.00
2019-05-20T13:14:13.706Z,17.43
2019-05-20T13:16:43.553Z,17.20
2019-05-20T13:19:13.344Z,15.17
2019-05-20T13:21:43.974Z,14.30
2019-05-20T13:24:13.835Z,17.83
2019-05-20T13:26:43.975Z,15.30
2019-05-20T13:29:13.931Z,18.67
2019-05-20T13:31:44.586Z,15.70
2019-05-20T13:34:18.177Z,15.07
2019-05-20T13:36:47.120Z,15.17
2019-05-20T13:39:17.323Z,16.10
2019-05-20T13:41:50.215Z,18.53
2019-05-20T13:44:20.073Z,17.00
2019-05-20T13:46:49.928Z,17.10
2019-05-20T13:49:19.910Z,23.80
2019-05-20T13:51:50.245Z,19.27
2019-05-20T13:54:20.051Z,17.03
2019-05-20T13:56:49.942Z,18.73
2019-05-20T13:59:19.735Z,16.00
2019-05-20T14:01:49.658Z,15.80
2019-05-20T14:04:19.812Z,20.53
2019-05-20T14:06:49.950Z,15.93
2019-05-20T14:09:19.870Z,18.90
2019-05-20T14:11:49.755Z,16.80
2019-05-20T14:14:19.545Z,17.40
2019-05-20T14:16:49.352Z,16.40
2019-05-20T14:19:22.563Z,20.93
2019-05-20T14:21:50.829Z,18.17
2019-05-20T14:24:21.279Z,19.13
2019-05-20T14:26:51.082Z,17.10
2019-05-20T14:29:21.045Z,15.73
2019-05-20T14:31:52.363Z,16.73
2019-05-20T14:34:23.498Z,15.40
2019-05-20T14:36:53.696Z,20.63
2019-05-20T14:39:23.612Z,18.83
2019-05-20T14:41:54.429Z,21.53
2019-05-20T14:44:24.419Z,22.37
2019-05-20T14:46:54.288Z,17.47
2019-05-20T14:49:25.223Z,21.07
2019-05-20T14:51:55.992Z,19.33
2019-05-20T14:54:25.786Z,19.17
2019-05-20T14:56:55.767Z,15.43
2019-05-20T14:59:25.679Z,20.27
2019-05-20T15:01:55.528Z,17.20
2019-05-20T15:04:25.391Z,19.23
2019-05-20T15:06:55.562Z,18.73
2019-05-20T15:09:25.839Z,19.83
2019-05-20T15:11:55.739Z,24.63
2019-05-20T15:14:25.647Z,20.00
2019-05-20T15:16:55.454Z,15.00
2019-05-20T15:19:25.258Z,18.70
2019-05-20T15:21:55.100Z,15.40
2019-05-20T15:24:25.114Z,18.63
2019-05-20T15:26:55.248Z,15.90
2019-05-20T15:29:28.359Z,15.73
2019-05-20T15:31:57.903Z,14.30
2019-05-20T15:34:29.234Z,14.27
2019-05-20T15:36:59.034Z,13.00
2019-05-20T15:39:28.837Z,13.33
2019-05-20T15:41:59.453Z,18.33
2019-05-20T15:44:30.042Z,15.70
2019-05-20T15:46:59.851Z,13.40
2019-05-20T15:49:29.649Z,12.50
2019-05-20T15:51:59.591Z,12.73
2019-05-20T15:54:29.370Z,13.00
2019-05-20T15:56:59.439Z,12.63
2019-05-20T15:59:44.993Z,12.57
2019-05-20T16:02:01.182Z,11.80
2019-05-20T16:04:31.185Z,12.13
2019-05-20T16:07:01.020Z,11.80
2019-05-20T16:09:30.814Z,14.27
2019-05-20T16:12:00.728Z,13.73
2019-05-20T16:14:30.511Z,13.30
2019-05-20T16:17:00.385Z,11.07
2019-05-20T16:19:30.218Z,14.53
2019-05-20T16:22:01.728Z,15.97
2019-05-20T16:24:31.980Z,12.70
2019-05-20T16:27:01.813Z,13.73
2019-05-20T16:29:31.587Z,10.67
2019-05-20T16:32:03.422Z,11.27
2019-05-20T16:34:34.483Z,12.53
2019-05-20T16:37:05.702Z,11.73
2019-05-20T16:39:35.596Z,12.00
2019-05-20T16:42:05.510Z,11.50
2019-05-20T16:44:35.874Z,10.10
2019-05-20T16:47:06.255Z,10.83
2019-05-20T16:49:39.179Z,11.00
2019-05-20T16:52:09.067Z,11.60
2019-05-20T16:54:38.914Z,11.23
2019-05-20T16:57:09.019Z,10.97
2019-05-20T16:59:38.865Z,11.53
2019-05-20T17:02:09.019Z,11.13
2019-05-20T17:04:38.890Z,11.70
2019-05-20T17:07:08.818Z,10.50
2019-05-20T17:09:38.606Z,10.40
2019-05-20T17:12:09.021Z,11.73
2019-05-20T17:14:38.828Z,10.37
2019-05-20T17:17:08.974Z,13.17
2019-05-20T17:19:38.970Z,10.17
2019-05-20T17:22:09.819Z,12.57
2019-05-20T17:24:39.611Z,10.77
2019-05-20T17:27:09.390Z,10.33
2019-05-20T17:29:39.326Z,10.70
2019-05-20T17:32:10.384Z,9.80
2019-05-20T17:34:40.421Z,9.63
2019-05-20T17:37:10.214Z,10.10
2019-05-20T17:39:40.174Z,9.80
2019-05-20T17:42:10.121Z,10.33
2019-05-20T17:44:40.946Z,10.00
2019-05-20T17:47:10.878Z,8.90
2019-05-20T17:49:40.666Z,9.33
2019-05-20T17:52:10.606Z,10.23
2019-05-20T17:54:40.394Z,9.87
2019-05-20T17:57:10.181Z,12.57
2019-05-20T17:59:40.454Z,9.60
2019-05-20T18:02:12.107Z,10.53
2019-05-20T18:04:42.023Z,10.23
2019-05-20T18:07:11.948Z,9.83
2019-05-20T18:09:47.910Z,9.60
2019-05-20T18:12:18.147Z,9.63
2019-05-20T18:14:52.359Z,9.60
2019-05-20T18:17:22.207Z,9.60
2019-05-20T18:19:52.074Z,8.80
2019-05-20T18:22:21.972Z,9.33
2019-05-20T18:24:51.773Z,10.23
2019-05-20T18:27:21.551Z,9.40
2019-05-20T18:29:52.072Z,9.83
2019-05-20T18:32:22.582Z,9.10
2019-05-20T18:34:52.994Z,9.43
2019-05-20T18:37:22.770Z,9.60
2019-05-20T18:39:52.545Z,10.50
2019-05-20T18:42:22.351Z,9.70
2019-05-20T18:44:52.726Z,9.53
2019-05-20T18:47:22.498Z,9.17
2019-05-20T18:49:52.351Z,9.27
2019-05-20T18:52:22.137Z,8.63
2019-05-20T18:54:51.929Z,10.60
2019-05-20T18:57:21.698Z,9.43
2019-05-20T18:59:53.170Z,10.13
2019-05-20T19:02:23.031Z,8.80
2019-05-20T19:04:52.879Z,9.33
2019-05-20T19:07:22.675Z,8.57
2019-05-20T19:09:52.450Z,8.83
2019-05-20T19:12:22.247Z,8.57
2019-05-20T19:14:52.058Z,9.07
2019-05-20T19:17:21.895Z,9.20
2019-05-20T19:19:51.755Z,9.87
2019-05-20T19:22:21.879Z,8.17
2019-05-20T19:24:51.669Z,9.03
2019-05-20T19:27:21.434Z,9.37
2019-05-20T19:29:51.297Z,8.67
2019-05-20T19:32:23.286Z,8.93
2019-05-20T19:34:53.154Z,8.77
2019-05-20T19:37:22.930Z,8.83
2019-05-20T19:39:52.801Z,8.93
2019-05-20T19:42:22.618Z,9.23
2019-05-20T19:44:53.066Z,8.47
2019-05-20T19:47:24.634Z,9.07
2019-05-20T19:49:54.430Z,9.63
2019-05-20T19:52:24.201Z,8.50
2019-05-20T19:54:53.976Z,8.57
2019-05-20T19:57:23.826Z,8.53
2019-05-20T19:59:53.598Z,8.27
2019-05-20T20:02:23.462Z,9.13
2019-05-20T20:04:53.302Z,7.80
2019-05-20T20:07:23.141Z,8.60
2019-05-20T20:09:53.353Z,8.03
2019-05-20T20:12:23.137Z,7.93
2019-05-20T20:14:52.920Z,8.47
2019-05-20T20:17:22.796Z,9.10
2019-05-20T20:19:52.784Z,7.83
2019-05-20T20:22:22.565Z,7.63
2019-05-20T20:24:52.359Z,8.07
2019-05-20T20:27:22.129Z,8.73
2019-05-20T20:29:51.934Z,8.37
2019-05-20T20:32:36.736Z,8.50
2019-05-20T20:34:54.774Z,7.93
2019-05-20T20:37:24.586Z,10.13
2019-05-20T20:39:54.362Z,7.60
2019-05-20T20:42:24.134Z,8.27
2019-05-20T20:44:53.933Z,7.97
2019-05-20T20:47:24.126Z,7.80
2019-05-20T20:49:54.623Z,8.60
2019-05-20T20:52:24.395Z,7.23
2019-05-20T20:54:54.159Z,8.00
2019-05-20T20:57:23.954Z,8.03
2019-05-20T20:59:53.797Z,7.43
2019-05-20T21:02:23.575Z,7.73
2019-05-20T21:04:53.617Z,8.07
2019-05-20T21:07:23.466Z,7.63
2019-05-20T21:09:53.255Z,7.47
2019-05-20T21:12:23.164Z,7.27
2019-05-20T21:14:52.965Z,7.03
2019-05-20T21:17:22.773Z,7.40
2019-05-20T21:19:52.578Z,7.00
2019-05-20T21:22:22.377Z,7.37
2019-05-20T21:24:52.150Z,7.17
2019-05-20T21:27:22.439Z,6.67
2019-05-20T21:29:52.471Z,7.97
2019-05-20T21:32:22.674Z,7.47
2019-05-20T21:34:53.938Z,7.07
2019-05-20T21:37:23.714Z,7.23
2019-05-20T21:39:53.482Z,7.73
2019-05-20T21:42:23.260Z,7.50
2019-05-20T21:44:54.911Z,7.13
2019-05-20T21:47:24.943Z,7.27
2019-05-20T21:49:56.003Z,7.00
2019-05-20T21:52:25.775Z,7.93
2019-05-20T21:54:55.550Z,7.77
2019-05-20T21:57:25.341Z,7.03
2019-05-20T21:59:55.158Z,6.90
2019-05-20T22:02:26.698Z,7.23
2019-05-20T22:04:57.654Z,6.47
2019-05-20T22:07:27.621Z,7.40
2019-05-20T22:09:57.382Z,7.70
2019-05-20T22:12:27.163Z,8.20
2019-05-20T22:14:57.079Z,7.60
2019-05-20T22:17:27.007Z,7.37
2019-05-20T22:19:56.820Z,7.90
2019-05-20T22:22:32.202Z,7.27
2019-05-20T22:25:02.363Z,7.27
2019-05-20T22:27:32.263Z,7.73
2019-05-20T22:30:02.039Z,6.97
2019-05-20T22:32:32.714Z,7.23
2019-05-20T22:35:04.667Z,7.17
2019-05-20T22:37:34.514Z,7.10
2019-05-20T22:40:05.302Z,7.70
2019-05-20T22:42:35.095Z,7.43
2019-05-20T22:45:05.440Z,7.53
2019-05-20T22:47:35.887Z,7.53
2019-05-20T22:50:06.645Z,7.43
2019-05-20T22:52:36.472Z,6.67
2019-05-20T22:55:06.835Z,7.63
2019-05-20T22:57:36.607Z,8.30
2019-05-20T23:00:06.838Z,7.57
2019-05-20T23:02:36.641Z,6.90
2019-05-20T23:05:06.623Z,7.10
2019-05-20T23:07:36.443Z,7.70
2019-05-20T23:10:06.651Z,7.00
2019-05-20T23:12:36.427Z,7.40
2019-05-20T23:15:06.666Z,7.20
2019-05-20T23:17:36.467Z,6.67
2019-05-20T23:20:07.564Z,7.40
2019-05-20T23:22:37.786Z,7.27
2019-05-20T23:25:07.639Z,7.40
2019-05-20T23:27:37.430Z,6.70
2019-05-20T23:30:08.258Z,7.03
2019-05-20T23:32:38.979Z,7.20
2019-05-20T23:35:11.230Z,7.13
2019-05-20T23:37:41.002Z,6.63
2019-05-20T23:40:11.151Z,6.63
2019-05-20T23:42:41.018Z,6.80
2019-05-20T23:45:11.766Z,6.47
2019-05-20T23:47:41.545Z,6.93
2019-05-20T23:50:12.515Z,6.10
2019-05-20T23:52:42.299Z,6.70
2019-05-20T23:55:12.954Z,6.77
2019-05-20T23:57:42.735Z,6.50
